Avalon, Texas
Current Conditions -  °F | °C
As of 4:35 AM on Monday 22 Dec 2014 (Local Time) from KJWY Reporting Station
Broken Clouds Broken Clouds  
Wind Chill: 12°   Ceiling: 1700
Heat Index: 12°   Visibility: 10mi
Dew Point: 11°   Wind: 20mph
Humidity: 91%   Direction: 200°SSW
Pressure: 29.63"   Gusts: 28mph
Location:  32.21°N, 96.79°W
Report Text: KJWY 221035Z AUTO 20017G24KT 10SM BKN017 12/11 A2963 RMK AO2 T01200106
Loading
Personal Weather Stations






























Interactive Weather Map New forecast layout! Learn more

10-Day Weather Forecast

Advertisements
Track Severe Weather on mobile